Port Saunders, Canada
Current Conditions -  °F | °C
As of 7:00 AM on Wednesday 22 Oct 2014 (Local Time) from CWDH Reporting Station
Scattered Clouds Scattered Clouds  
Wind Chill:   Ceiling: Unl
Heat Index:   Visibility: 9mi
Dew Point:   Wind: 6mph
Humidity: 73%   Direction: 330°NNW
Pressure: 30.35"   Gusts: NA
Location:  50.65°N, 57.27°W
Report Text: CWDH 220900Z AUTO 33005KT 9SM SCT025 05/01 A3035 RMK SLP279 T00540010 WSI/SWOB
Loading
Personal Weather Stations






























Interactive Weather Map
Tropical Storm Tracking
New forecast layout! Learn more

10-Day Weather Forecast

Advertisements
Track Severe Weather on mobile